Time;durP1;ratioP1;P1;durP2;ratioP2;P2;SDS_P1;SDS_P2;PMS_P1;PMS_P2;Temp;Humidity;BMP_temperature;BMP_pressure;BME280_temperature;BME280_humidity;BME280_pressure;Samples;Min_cycle;Max_cycle;Signal;HPM_P1;HPM_P2
2023/10/06 00:02:30;;;;;;;8.82;5.15;;;8.60;99.90;;;;;;5059696;28;20052;-68
2023/10/06 00:05:11;;;;;;;8.77;4.95;;;8.60;99.90;;;;;;5055726;28;20037;-68
2023/10/06 00:07:42;;;;;;;10.18;5.47;;;8.60;99.90;;;;;;5054397;28;20044;-68
2023/10/06 00:10:19;;;;;;;6.47;4.55;;;8.60;99.90;;;;;;5055297;28;20040;-68
2023/10/06 00:12:58;;;;;;;9.07;4.63;;;8.60;99.90;;;;;;5044384;28;20681;-68
2023/10/06 00:15:34;;;;;;;;;;;8.50;99.90;;;;;;5054555;28;20516;-68
2023/10/06 00:18:16;;;;;;;8.57;5.10;;;8.50;99.90;;;;;;5053637;28;19925;-68
2023/10/06 00:20:49;;;;;;;10.40;5.70;;;8.50;99.90;;;;;;5065281;28;20525;-68
2023/10/06 00:23:22;;;;;;;7.68;4.20;;;8.50;99.90;;;;;;5056169;28;20045;-68
2023/10/06 00:25:55;;;;;;;8.27;4.88;;;8.40;99.90;;;;;;5055459;28;20119;-68
2023/10/06 00:28:27;;;;;;;10.35;4.75;;;8.40;99.90;;;;;;5055950;28;20049;-68
2023/10/06 00:31:08;;;;;;;8.40;4.50;;;8.40;99.90;;;;;;5059565;28;20583;-68
2023/10/06 00:33:43;;;;;;;7.20;4.05;;;8.40;99.90;;;;;;5045398;28;20047;-68
2023/10/06 00:36:15;;;;;;;8.43;4.60;;;8.40;99.90;;;;;;5061532;28;20033;-68
2023/10/06 00:38:50;;;;;;;9.48;4.70;;;8.40;99.90;;;;;;5067499;28;20043;-69
2023/10/06 00:41:23;;;;;;;9.35;4.88;;;8.20;99.90;;;;;;5053682;28;20044;-68
2023/10/06 00:43:55;;;;;;;9.27;5.32;;;8.20;99.90;;;;;;5058016;28;20039;-68
2023/10/06 00:46:27;;;;;;;7.72;5.05;;;8.10;99.90;;;;;;5049596;28;20049;-68
2023/10/06 00:48:56;;;;;;;8.23;4.63;;;8.00;99.90;;;;;;5057231;28;20060;-68
2023/10/06 00:51:28;;;;;;;10.27;4.65;;;8.00;99.90;;;;;;5063710;28;20049;-69
2023/10/06 00:54:00;;;;;;;8.85;5.57;;;8.00;99.90;;;;;;5044162;28;20044;-69
2023/10/06 00:56:32;;;;;;;7.82;4.93;;;8.10;99.90;;;;;;5060154;28;20059;-68
2023/10/06 00:59:04;;;;;;;9.10;4.72;;;8.10;99.90;;;;;;5053933;28;20040;-68
2023/10/06 01:01:36;;;;;;;10.65;4.63;;;8.10;99.90;;;;;;5053967;28;20041;-68
2023/10/06 01:04:12;;;;;;;9.52;4.60;;;8.10;99.90;;;;;;5055326;28;20119;-67
2023/10/06 01:06:44;;;;;;;9.50;4.70;;;8.10;99.90;;;;;;5062002;28;20059;-68
2023/10/06 01:09:17;;;;;;;10.07;5.38;;;8.10;99.90;;;;;;5057097;28;20037;-69
2023/10/06 01:11:55;;;;;;;8.95;5.07;;;8.10;99.90;;;;;;5046516;28;20049;-68
2023/10/06 01:14:27;;;;;;;10.75;5.40;;;8.10;99.90;;;;;;5051416;28;20508;-68
2023/10/06 01:17:09;;;;;;;10.32;4.80;;;8.10;99.90;;;;;;5049915;28;20427;-67
2023/10/06 01:19:48;;;;;;;9.48;5.03;;;8.00;99.90;;;;;;5058598;28;20045;-68
2023/10/06 01:22:30;;;;;;;9.15;5.82;;;8.00;99.90;;;;;;5041187;28;20052;-68
2023/10/06 01:25:10;;;;;;;8.50;4.72;;;8.00;99.90;;;;;;5056504;28;20045;-67
2023/10/06 01:27:44;;;;;;;8.27;4.60;;;8.00;99.90;;;;;;5038914;28;20041;-68
2023/10/06 01:30:18;;;;;;;11.10;5.13;;;8.00;99.90;;;;;;5059889;28;20044;-68
2023/10/06 01:32:50;;;;;;;9.68;4.93;;;8.00;99.90;;;;;;5055981;28;20044;-68
2023/10/06 01:35:20;;;;;;;9.30;4.68;;;8.00;99.90;;;;;;5056163;28;20061;-68
2023/10/06 01:37:59;;;;;;;8.95;5.38;;;8.00;99.90;;;;;;5050868;28;20547;-68
2023/10/06 01:43:10;;;;;;;7.00;4.97;;;8.00;99.90;;;;;;5061776;28;20041;-68
2023/10/06 01:45:43;;;;;;;9.93;5.10;;;7.90;99.90;;;;;;5060905;28;20574;-68
2023/10/06 01:50:54;;;;;;;7.95;4.45;;;7.90;99.90;;;;;;5063715;28;20049;-67
2023/10/06 01:53:32;;;;;;;;;;;7.90;99.90;;;;;;5061140;28;20055;-68
2023/10/06 01:56:07;;;;;;;8.10;4.90;;;7.80;99.90;;;;;;5065730;28;19995;-69
2023/10/06 01:58:39;;;;;;;9.43;4.95;;;7.70;99.90;;;;;;5058086;28;20183;-69
2023/10/06 02:01:11;;;;;;;8.05;4.70;;;7.70;99.90;;;;;;5042672;28;20127;-69
2023/10/06 02:03:42;;;;;;;9.35;4.10;;;7.70;99.90;;;;;;5059044;28;20049;-68
2023/10/06 02:06:16;;;;;;;8.48;4.90;;;7.70;99.90;;;;;;5059671;28;20052;-68
2023/10/06 02:08:43;;;;;;;9.70;4.95;;;7.70;99.90;;;;;;5056921;28;20037;-68
2023/10/06 02:11:16;;;;;;;7.40;4.95;;;7.70;99.90;;;;;;5041919;28;20049;-68
2023/10/06 02:13:43;;;;;;;8.48;5.22;;;7.70;99.90;;;;;;5039587;28;20509;-68
2023/10/06 02:16:18;;;;;;;8.73;4.45;;;7.60;99.90;;;;;;5053294;28;20655;-68
2023/10/06 02:18:50;;;;;;;9.23;4.90;;;7.60;99.90;;;;;;5057813;28;20121;-68
2023/10/06 02:21:24;;;;;;;6.95;4.22;;;7.50;99.90;;;;;;5059141;28;20037;-68
2023/10/06 02:24:03;;;;;;;7.40;4.53;;;7.50;99.90;;;;;;5065189;28;20044;-68
2023/10/06 02:26:38;;;;;;;7.68;4.47;;;7.50;99.90;;;;;;5060883;28;20044;-68
2023/10/06 02:29:22;;;;;;;7.88;4.30;;;7.50;99.90;;;;;;5063809;28;20040;-68
2023/10/06 02:32:16;;;;;;;6.45;4.03;;;7.40;99.90;;;;;;5072287;28;20033;-69
2023/10/06 02:34:46;;;;;;;7.63;4.75;;;7.40;99.90;;;;;;5059795;28;20047;-69
2023/10/06 02:37:22;;;;;;;9.68;4.85;;;7.40;99.90;;;;;;5057839;28;20040;-69
2023/10/06 02:39:54;;;;;;;7.88;4.47;;;7.40;99.90;;;;;;5065919;28;20041;-69
2023/10/06 02:42:21;;;;;;;8.02;4.68;;;7.40;99.90;;;;;;5059087;28;20032;-69
2023/10/06 02:44:53;;;;;;;7.43;4.22;;;7.40;99.90;;;;;;5061532;28;20040;-69
2023/10/06 02:47:27;;;;;;;8.98;5.15;;;7.40;99.90;;;;;;5054484;28;20041;-68
2023/10/06 02:49:59;;;;;;;8.23;4.43;;;7.40;99.90;;;;;;5063909;28;20052;-68
2023/10/06 02:52:38;;;;;;;10.07;5.03;;;7.40;99.90;;;;;;5063424;28;20052;-68
2023/10/06 02:55:11;;;;;;;10.07;5.20;;;7.40;99.90;;;;;;5049168;28;20049;-69
2023/10/06 02:57:50;;;;;;;8.82;4.38;;;7.40;99.90;;;;;;5071318;28;20049;-68
2023/10/06 03:05:51;;;;;;;8.93;4.60;;;7.30;99.90;;;;;;5051469;28;20420;-68
2023/10/06 03:08:30;;;;;;;7.40;5.63;;;7.20;99.90;;;;;;5057868;28;20041;-68
2023/10/06 03:11:02;;;;;;;9.60;4.97;;;7.20;99.90;;;;;;5066462;28;20403;-68
2023/10/06 03:13:36;;;;;;;8.32;4.45;;;7.20;99.90;;;;;;5061300;28;20542;-68
2023/10/06 03:16:10;;;;;;;9.45;4.72;;;7.20;99.90;;;;;;5060091;28;20110;-68
2023/10/06 03:18:44;;;;;;;7.88;4.40;;;7.20;99.90;;;;;;5059284;28;20036;-68
2023/10/06 03:21:16;;;;;;;;;;;7.20;99.90;;;;;;5047709;28;20119;-68
2023/10/06 03:23:57;;;;;;;8.48;4.55;;;7.20;99.90;;;;;;5052538;28;20525;-68
2023/10/06 03:26:29;;;;;;;8.02;4.80;;;7.10;99.90;;;;;;5069458;28;20094;-68
2023/10/06 03:29:02;;;;;;;10.50;5.60;;;7.00;99.90;;;;;;5064837;28;20041;-68
2023/10/06 03:31:44;;;;;;;8.67;4.87;;;7.00;99.90;;;;;;5055911;28;20037;-68
2023/10/06 03:34:22;;;;;;;8.73;5.05;;;7.00;99.90;;;;;;5057387;28;20072;-68
2023/10/06 03:36:57;;;;;;;;;;;6.90;99.90;;;;;;5059300;28;20029;-68
2023/10/06 03:39:30;;;;;;;7.97;4.30;;;6.90;99.90;;;;;;5046009;28;20106;-68
2023/10/06 03:42:07;;;;;;;7.18;4.25;;;6.90;99.90;;;;;;5063453;28;20420;-68
2023/10/06 03:44:39;;;;;;;7.68;3.60;;;6.90;99.90;;;;;;5057539;28;20590;-68
2023/10/06 03:47:08;;;;;;;10.45;5.25;;;6.90;99.90;;;;;;5053690;28;20129;-68
2023/10/06 03:49:37;;;;;;;9.63;4.65;;;6.80;99.90;;;;;;5056719;28;20131;-67
2023/10/06 03:52:09;;;;;;;7.72;4.72;;;6.90;99.90;;;;;;5057945;28;20047;-68
2023/10/06 03:54:41;;;;;;;8.82;4.85;;;6.90;99.90;;;;;;5057964;28;20106;-68
2023/10/06 03:57:15;;;;;;;11.00;4.75;;;6.90;99.90;;;;;;5063196;28;20119;-68
2023/10/06 03:59:47;;;;;;;9.05;5.03;;;6.90;99.90;;;;;;5054399;28;20112;-68
2023/10/06 04:02:19;;;;;;;8.85;4.65;;;6.90;99.90;;;;;;5045616;28;20472;-67
2023/10/06 04:04:53;;;;;;;8.70;4.72;;;6.90;99.90;;;;;;5055021;28;20060;-68
2023/10/06 04:07:25;;;;;;;12.90;4.63;;;6.90;99.90;;;;;;5056910;28;20433;-68
2023/10/06 04:09:51;;;;;;;7.07;4.78;;;6.90;99.90;;;;;;5056405;28;20127;-67
2023/10/06 04:12:23;;;;;;;7.05;4.22;;;6.90;99.90;;;;;;5054850;28;20094;-68
2023/10/06 04:14:55;;;;;;;8.52;4.18;;;6.90;99.90;;;;;;5056237;28;20041;-67
2023/10/06 04:17:29;;;;;;;8.70;5.03;;;6.80;99.90;;;;;;5051080;28;20055;-67
2023/10/06 04:20:05;;;;;;;;;;;6.80;99.90;;;;;;5057876;28;20116;-68
2023/10/06 04:22:38;;;;;;;8.20;5.18;;;6.80;99.90;;;;;;5056976;28;19921;-68
2023/10/06 04:25:10;;;;;;;12.10;6.85;;;6.70;99.90;;;;;;5054512;28;20040;-68
2023/10/06 04:27:42;;;;;;;27.75;9.93;;;6.60;99.90;;;;;;5059844;28;20122;-68
2023/10/06 04:30:14;;;;;;;56.60;19.95;;;6.60;99.90;;;;;;5058361;28;20048;-68
2023/10/06 04:32:46;;;;;;;75.30;29.60;;;6.60;99.90;;;;;;5061550;28;20528;-68
2023/10/06 04:35:24;;;;;;;51.55;22.77;;;6.40;99.90;;;;;;5060810;28;20063;-67
2023/10/06 04:37:56;;;;;;;18.98;9.05;;;6.40;99.90;;;;;;5064374;28;20149;-67
2023/10/06 04:40:28;;;;;;;37.33;17.58;;;6.40;99.90;;;;;;5065734;28;20151;-68
2023/10/06 04:42:59;;;;;;;23.42;10.90;;;6.30;99.90;;;;;;5063790;28;20033;-68
2023/10/06 04:45:27;;;;;;;19.85;10.73;;;6.30;99.90;;;;;;5057413;28;20040;-68
2023/10/06 04:48:00;;;;;;;18.95;8.05;;;6.30;99.90;;;;;;5061606;28;20044;-67
2023/10/06 04:50:29;;;;;;;17.17;8.43;;;6.30;99.90;;;;;;5059541;28;20045;-68
2023/10/06 04:52:56;;;;;;;24.20;10.50;;;6.30;99.90;;;;;;5060371;28;20053;-68
2023/10/06 04:55:31;;;;;;;24.50;10.17;;;6.30;99.90;;;;;;5061911;28;20036;-68
2023/10/06 04:58:15;;;;;;;29.90;12.63;;;6.30;99.90;;;;;;5064651;28;20717;-67
2023/10/06 05:00:42;;;;;;;33.28;13.75;;;6.30;99.90;;;;;;5064239;28;20473;-67
2023/10/06 05:03:14;;;;;;;21.23;9.00;;;6.40;99.90;;;;;;5062910;28;20043;-67
2023/10/06 05:05:50;;;;;;;19.80;9.23;;;6.30;99.90;;;;;;5041617;28;20033;-67
2023/10/06 05:08:24;;;;;;;15.07;8.15;;;6.40;99.90;;;;;;5059629;28;20796;-67
2023/10/06 05:10:56;;;;;;;13.40;6.88;;;6.40;99.90;;;;;;5060778;28;21275;-68
2023/10/06 05:13:23;;;;;;;15.52;7.10;;;6.40;99.90;;;;;;5062197;28;20123;-68
2023/10/06 05:15:55;;;;;;;12.95;6.72;;;6.40;99.90;;;;;;5067863;28;20040;-68
2023/10/06 05:18:24;;;;;;;16.65;7.57;;;6.40;99.90;;;;;;5069571;28;20036;-68
2023/10/06 05:20:57;;;;;;;15.55;7.60;;;6.30;99.90;;;;;;5067409;28;20036;-67
2023/10/06 05:23:29;;;;;;;;;;;6.30;99.90;;;;;;5059044;28;20037;-67
2023/10/06 05:26:08;;;;;;;12.65;6.35;;;6.30;99.90;;;;;;5063336;28;19932;-67
2023/10/06 05:28:37;;;;;;;17.35;7.53;;;6.30;99.90;;;;;;5068305;28;20159;-67
2023/10/06 05:31:08;;;;;;;36.38;17.27;;;6.30;99.90;;;;;;5064859;28;20068;-68
2023/10/06 05:33:40;;;;;;;10.50;6.43;;;6.20;99.90;;;;;;5059862;28;20045;-68
2023/10/06 05:36:12;;;;;;;10.65;5.15;;;6.20;99.90;;;;;;5068158;28;20066;-67
2023/10/06 05:38:45;;;;;;;9.68;4.93;;;6.10;99.90;;;;;;5061886;28;20068;-67
2023/10/06 05:41:17;;;;;;;7.15;4.97;;;6.00;99.90;;;;;;5062515;28;20036;-67
2023/10/06 05:43:49;;;;;;;9.45;5.35;;;5.90;99.90;;;;;;5060329;28;20045;-67
2023/10/06 05:46:21;;;;;;;10.00;5.47;;;5.90;99.90;;;;;;5064433;28;20497;-67
2023/10/06 05:48:53;;;;;;;11.30;6.70;;;5.90;99.90;;;;;;5066475;28;20041;-68
2023/10/06 05:51:25;;;;;;;10.25;6.30;;;5.90;99.90;;;;;;5063743;28;20052;-67
2023/10/06 05:53:57;;;;;;;9.50;5.53;;;5.90;99.90;;;;;;5063061;28;20044;-68
2023/10/06 05:56:29;;;;;;;10.48;6.18;;;5.90;99.90;;;;;;5063732;28;20048;-67
2023/10/06 05:59:01;;;;;;;16.55;10.70;;;5.90;99.90;;;;;;5048528;28;20044;-68
2023/10/06 06:01:35;;;;;;;12.48;8.85;;;5.90;99.90;;;;;;5056265;28;20045;-67
2023/10/06 06:04:09;;;;;;;14.85;8.10;;;5.90;99.90;;;;;;5059302;28;20040;-67
2023/10/06 06:06:42;;;;;;;17.42;9.40;;;5.90;99.90;;;;;;5059326;28;20495;-65
2023/10/06 06:09:14;;;;;;;20.02;11.95;;;5.90;99.90;;;;;;5058727;28;20044;-67
2023/10/06 06:11:46;;;;;;;12.45;7.35;;;6.00;99.90;;;;;;5049593;28;20709;-67
2023/10/06 06:14:21;;;;;;;18.48;7.22;;;6.00;99.90;;;;;;5065220;28;20051;-67
2023/10/06 06:16:55;;;;;;;12.15;6.75;;;6.00;99.90;;;;;;5056171;28;20041;-67
2023/10/06 06:19:27;;;;;;;16.10;7.38;;;5.90;99.90;;;;;;5062213;28;20029;-67
2023/10/06 06:22:02;;;;;;;16.60;7.00;;;6.00;99.90;;;;;;5064419;28;20041;-66
2023/10/06 06:24:29;;;;;;;13.18;7.13;;;5.90;99.90;;;;;;5068980;28;20041;-68
2023/10/06 06:27:01;;;;;;;14.65;8.07;;;5.90;99.90;;;;;;5061708;28;20041;-68
2023/10/06 06:29:29;;;;;;;13.90;7.55;;;6.00;99.90;;;;;;5061234;28;20173;-67
2023/10/06 06:32:11;;;;;;;11.38;7.68;;;6.00;99.90;;;;;;5063198;28;20048;-67
2023/10/06 06:34:43;;;;;;;11.77;8.10;;;6.00;99.90;;;;;;5058254;28;20049;-66
2023/10/06 06:37:15;;;;;;;13.80;8.55;;;6.10;99.90;;;;;;5060688;28;20416;-68
2023/10/06 06:39:47;;;;;;;12.95;8.68;;;6.10;99.90;;;;;;5038621;28;20056;-68
2023/10/06 06:42:19;;;;;;;9.35;6.85;;;6.20;99.90;;;;;;5037171;28;20045;-68
2023/10/06 06:44:48;;;;;;;12.82;8.55;;;6.20;99.90;;;;;;5025979;28;20589;-67
2023/10/06 06:47:21;;;;;;;16.67;11.25;;;6.20;99.90;;;;;;5036389;28;20060;-68
2023/10/06 06:49:54;;;;;;;17.50;10.73;;;6.30;99.90;;;;;;5037978;28;20132;-68
2023/10/06 06:52:22;;;;;;;10.38;7.25;;;6.30;99.90;;;;;;5038805;28;20033;-65
2023/10/06 06:54:54;;;;;;;12.07;7.53;;;6.30;99.90;;;;;;5028614;28;20064;-68
2023/10/06 06:57:25;;;;;;;13.65;8.02;;;6.40;99.90;;;;;;5036855;28;20509;-68
2023/10/06 06:59:58;;;;;;;9.23;6.38;;;6.40;99.90;;;;;;5026209;28;20052;-68
2023/10/06 07:02:24;;;;;;;9.50;5.53;;;6.50;99.90;;;;;;5041941;28;20459;-67
2023/10/06 07:04:56;;;;;;;6.45;5.63;;;6.50;99.90;;;;;;5035535;28;20041;-68
2023/10/06 07:07:28;;;;;;;7.20;5.50;;;6.60;99.90;;;;;;5038584;28;20041;-68
2023/10/06 07:10:06;;;;;;;14.73;9.95;;;6.60;99.90;;;;;;5037081;28;20049;-68
2023/10/06 07:12:34;;;;;;;13.25;5.18;;;6.70;99.90;;;;;;5036293;28;20120;-67
2023/10/06 07:15:14;;;;;;;10.55;5.45;;;6.80;99.90;;;;;;5039899;28;20041;-67
2023/10/06 07:17:50;;;;;;;7.50;4.63;;;6.80;99.90;;;;;;5037849;28;20053;-68
2023/10/06 07:20:26;;;;;;;11.45;6.82;;;6.80;99.90;;;;;;5038132;28;20042;-68
2023/10/06 07:23:03;;;;;;;14.95;9.68;;;6.90;99.90;;;;;;5037845;28;20052;-67
2023/10/06 07:25:37;;;;;;;12.63;8.35;;;7.00;99.90;;;;;;5024671;28;20061;-68
2023/10/06 07:28:11;;;;;;;7.85;5.50;;;7.10;99.90;;;;;;5028420;28;20047;-67
2023/10/06 07:30:43;;;;;;;11.15;6.60;;;7.20;99.90;;;;;;5042728;28;20140;-68
2023/10/06 07:33:14;;;;;;;11.93;5.97;;;7.30;99.90;;;;;;5032006;28;20033;-68
2023/10/06 07:35:51;;;;;;;7.80;4.75;;;7.40;99.90;;;;;;5024745;28;20049;-68
2023/10/06 07:38:24;;;;;;;7.50;4.82;;;7.50;99.90;;;;;;5034760;28;20033;-67
2023/10/06 07:40:58;;;;;;;10.63;6.50;;;7.50;99.90;;;;;;5024685;28;20073;-68
2023/10/06 07:43:30;;;;;;;8.77;4.93;;;7.60;99.90;;;;;;5034158;28;20466;-67
2023/10/06 07:46:07;;;;;;;9.23;5.22;;;7.80;99.90;;;;;;5036347;28;20063;-68
2023/10/06 07:48:39;;;;;;;19.52;11.40;;;7.90;99.90;;;;;;5037898;28;20467;-67
2023/10/06 07:51:16;;;;;;;13.65;7.40;;;8.00;99.90;;;;;;5038316;28;20051;-68
2023/10/06 07:53:48;;;;;;;10.07;6.88;;;8.10;99.90;;;;;;5038607;28;20064;-68
2023/10/06 07:56:19;;;;;;;14.93;8.25;;;8.10;99.90;;;;;;5037197;28;20051;-69
2023/10/06 07:58:53;;;;;;;11.02;5.85;;;8.20;99.90;;;;;;5021634;28;20063;-67
2023/10/06 08:01:25;;;;;;;8.80;5.53;;;8.20;99.90;;;;;;5037010;28;20052;-67
2023/10/06 08:03:58;;;;;;;11.38;6.53;;;8.30;99.90;;;;;;5039961;28;20073;-68
2023/10/06 08:06:30;;;;;;;11.00;6.60;;;8.40;99.90;;;;;;5040462;28;20041;-68
2023/10/06 08:09:05;;;;;;;6.53;4.43;;;8.40;99.90;;;;;;5034516;28;20056;-67
2023/10/06 08:11:39;;;;;;;7.63;4.15;;;8.50;99.90;;;;;;5034279;28;20056;-68
2023/10/06 08:14:06;;;;;;;11.07;5.93;;;8.50;99.90;;;;;;5036304;28;20061;-68
2023/10/06 08:16:37;;;;;;;10.68;6.20;;;8.60;99.90;;;;;;5034961;28;20506;-68
2023/10/06 08:19:05;;;;;;;9.82;6.88;;;8.70;99.90;;;;;;5035366;28;20034;-68
2023/10/06 08:21:37;;;;;;;12.88;7.70;;;8.80;99.90;;;;;;5031215;28;20052;-68
2023/10/06 08:24:06;;;;;;;13.57;7.60;;;9.00;99.90;;;;;;5034162;28;20065;-68
2023/10/06 08:26:38;;;;;;;10.07;7.10;;;9.10;99.90;;;;;;5030165;28;20048;-68
2023/10/06 08:29:10;;;;;;;8.32;6.65;;;9.30;99.90;;;;;;5021177;28;20510;-68
2023/10/06 08:31:42;;;;;;;9.43;6.53;;;9.40;99.90;;;;;;5036022;28;20038;-68
2023/10/06 08:34:14;;;;;;;9.40;6.53;;;9.60;99.90;;;;;;5033963;28;20044;-68
2023/10/06 08:36:46;;;;;;;10.88;6.55;;;9.70;99.90;;;;;;5032892;28;20044;-69
2023/10/06 08:39:18;;;;;;;9.57;6.68;;;9.80;99.90;;;;;;5033123;28;20505;-69
2023/10/06 08:41:52;;;;;;;11.73;7.22;;;9.90;99.90;;;;;;5031512;28;20033;-68
2023/10/06 08:44:25;;;;;;;12.88;6.05;;;10.10;99.90;;;;;;5034350;28;20056;-69
2023/10/06 08:46:53;;;;;;;11.23;6.43;;;10.30;99.90;;;;;;5037497;28;20045;-69
2023/10/06 08:49:25;;;;;;;7.25;5.63;;;10.40;99.90;;;;;;5047551;28;20080;-69
2023/10/06 08:51:57;;;;;;;9.60;6.28;;;10.50;99.90;;;;;;5041767;28;20052;-69
2023/10/06 08:54:31;;;;;;;12.80;6.50;;;10.60;99.90;;;;;;5041183;28;20060;-69
2023/10/06 08:57:03;;;;;;;10.85;7.20;;;10.70;99.90;;;;;;5039351;28;20123;-68
2023/10/06 08:59:34;;;;;;;19.75;7.95;;;10.80;99.90;;;;;;5038979;28;20041;-68
2023/10/06 09:02:01;;;;;;;12.15;8.32;;;11.00;99.90;;;;;;5047490;28;20053;-69
2023/10/06 09:04:37;;;;;;;14.35;9.15;;;11.10;99.90;;;;;;5035656;28;20056;-69
2023/10/06 09:07:15;;;;;;;15.85;8.73;;;11.20;99.90;;;;;;5038049;28;20509;-69
2023/10/06 09:09:47;;;;;;;13.07;8.82;;;11.30;99.90;;;;;;5044314;28;20041;-69
2023/10/06 09:12:25;;;;;;;17.20;9.38;;;11.40;99.90;;;;;;5035716;28;20065;-69
2023/10/06 09:14:57;;;;;;;14.25;9.15;;;11.50;99.90;;;;;;5036881;28;20047;-68
2023/10/06 09:17:31;;;;;;;14.18;7.65;;;11.70;99.90;;;;;;5039360;28;20037;-68
2023/10/06 09:19:59;;;;;;;14.65;10.07;;;11.80;99.90;;;;;;5040767;28;20493;-68
2023/10/06 09:22:47;;;;;;;10.55;8.13;;;11.90;99.90;;;;;;5036921;28;20065;-69
2023/10/06 09:25:21;;;;;;;11.05;7.00;;;12.10;99.90;;;;;;5028657;28;20045;-68
2023/10/06 09:28:03;;;;;;;14.20;8.93;;;12.30;99.90;;;;;;5036960;28;20045;-68
2023/10/06 09:30:45;;;;;;;15.80;9.40;;;12.50;99.90;;;;;;5042356;28;20040;-68
2023/10/06 09:33:12;;;;;;;16.00;10.32;;;12.60;99.90;;;;;;5042268;28;20043;-68
2023/10/06 09:35:44;;;;;;;18.42;10.48;;;12.80;99.90;;;;;;5036280;28;20042;-68
2023/10/06 09:38:17;;;;;;;13.27;9.15;;;12.90;99.90;;;;;;5036981;28;20037;-68
2023/10/06 09:40:49;;;;;;;14.70;9.73;;;13.00;99.90;;;;;;5038930;28;20492;-69
2023/10/06 09:43:23;;;;;;;13.82;9.38;;;13.10;99.90;;;;;;5024575;28;20036;-69
2023/10/06 09:45:59;;;;;;;12.68;9.38;;;13.30;99.90;;;;;;5036192;28;20060;-67
2023/10/06 09:48:33;;;;;;;16.08;10.73;;;13.30;99.90;;;;;;5036436;28;20049;-69
2023/10/06 09:51:07;;;;;;;13.15;9.57;;;13.50;99.90;;;;;;5036156;28;20063;-69
2023/10/06 09:53:43;;;;;;;14.55;9.80;;;13.60;99.90;;;;;;5036616;28;20035;-69
2023/10/06 09:56:17;;;;;;;16.40;10.45;;;13.70;99.90;;;;;;5034605;28;20730;-69
2023/10/06 09:58:48;;;;;;;18.08;11.65;;;13.80;99.90;;;;;;5036887;28;20124;-70
2023/10/06 10:01:15;;;;;;;26.95;10.40;;;13.90;99.90;;;;;;5037034;28;20045;-68
2023/10/06 10:03:48;;;;;;;14.05;10.10;;;13.90;99.90;;;;;;5027891;28;20053;-68
2023/10/06 10:06:21;;;;;;;18.00;10.45;;;14.10;99.90;;;;;;5038304;28;20030;-70
2023/10/06 10:08:54;;;;;;;13.23;9.85;;;14.20;99.90;;;;;;5039492;28;20053;-67
2023/10/06 10:11:31;;;;;;;13.55;10.38;;;14.30;99.90;;;;;;5038466;28;20640;-68
2023/10/06 10:14:37;;;;;;;19.20;11.45;;;14.30;99.90;;;;;;5036470;28;20050;-68
2023/10/06 10:17:23;;;;;;;16.67;10.07;;;14.40;99.90;;;;;;5044631;28;20037;-69
2023/10/06 10:19:55;;;;;;;16.92;11.23;;;14.60;99.90;;;;;;5036813;28;20092;-67
2023/10/06 10:22:28;;;;;;;15.80;10.48;;;14.60;99.90;;;;;;5042432;28;20056;-68
2023/10/06 10:25:05;;;;;;;14.20;9.68;;;14.70;99.90;;;;;;5040145;28;20555;-69
2023/10/06 10:27:37;;;;;;;17.00;10.38;;;14.90;99.90;;;;;;5037165;28;20060;-70
2023/10/06 10:30:15;;;;;;;15.25;10.38;;;15.00;99.90;;;;;;5036137;28;20044;-69
2023/10/06 10:32:51;;;;;;;13.38;9.80;;;15.10;99.90;;;;;;5039938;28;20033;-68
2023/10/06 10:35:23;;;;;;;13.70;11.10;;;15.20;99.90;;;;;;5038124;28;20041;-69
2023/10/06 10:38:02;;;;;;;15.00;10.18;;;15.30;99.90;;;;;;5031491;28;20051;-68
2023/10/06 10:40:56;;;;;;;13.38;10.30;;;15.50;99.90;;;;;;5034214;28;20037;-69
2023/10/06 10:43:22;;;;;;;13.57;10.15;;;15.60;99.90;;;;;;5037508;28;20579;-68
2023/10/06 10:45:57;;;;;;;14.57;10.45;;;15.70;99.90;;;;;;5026389;28;20033;-68
2023/10/06 10:48:36;;;;;;;16.35;10.93;;;15.70;99.90;;;;;;5035508;28;20042;-69
2023/10/06 10:51:12;;;;;;;13.63;10.25;;;15.80;99.90;;;;;;5035018;28;20048;-66
2023/10/06 10:53:45;;;;;;;18.17;11.55;;;15.90;99.90;;;;;;5040200;28;20050;-69
2023/10/06 10:56:25;;;;;;;16.27;10.52;;;16.00;99.90;;;;;;5032732;28;20044;-68
2023/10/06 10:58:53;;;;;;;14.10;11.20;;;16.10;99.90;;;;;;5033162;28;20123;-68
2023/10/06 11:01:29;;;;;;;;;;;16.20;99.90;;;;;;5033397;28;20046;-69
2023/10/06 11:04:14;;;;;;;14.93;11.15;;;16.30;99.90;;;;;;5034693;28;19921;-68
2023/10/06 11:06:49;;;;;;;16.50;11.43;;;16.30;99.90;;;;;;5043441;28;20056;-65
2023/10/06 11:09:26;;;;;;;15.85;11.25;;;16.40;99.90;;;;;;5037327;28;20428;-69
2023/10/06 11:12:01;;;;;;;15.23;10.57;;;16.40;99.90;;;;;;5036134;28;20191;-67
2023/10/06 11:14:39;;;;;;;15.70;10.70;;;16.50;99.90;;;;;;5036313;28;20048;-67
2023/10/06 11:17:06;;;;;;;19.30;11.48;;;16.60;99.90;;;;;;5037551;28;20524;-66
2023/10/06 11:19:40;;;;;;;16.15;10.73;;;16.70;99.90;;;;;;5033104;28;20041;-67
2023/10/06 11:22:22;;;;;;;15.88;10.02;;;16.80;99.90;;;;;;5028137;28;20052;-69
2023/10/06 11:24:50;;;;;;;14.02;11.32;;;16.90;99.90;;;;;;5034377;28;20459;-67
2023/10/06 11:27:23;;;;;;;14.27;10.93;;;17.00;99.90;;;;;;5035069;28;20497;-68
2023/10/06 11:29:53;;;;;;;16.25;10.82;;;17.10;99.90;;;;;;5015939;28;20033;-66
2023/10/06 11:32:26;;;;;;;13.93;10.48;;;17.20;99.90;;;;;;5030781;28;20103;-67
2023/10/06 11:34:54;;;;;;;16.02;10.27;;;17.20;99.90;;;;;;5034341;28;20029;-67
2023/10/06 11:37:28;;;;;;;14.57;10.03;;;17.40;99.90;;;;;;5029013;28;20443;-69
2023/10/06 11:40:01;;;;;;;13.68;9.82;;;17.40;99.90;;;;;;5036802;28;20291;-68
2023/10/06 11:42:35;;;;;;;15.40;10.90;;;17.50;99.90;;;;;;5039578;28;20042;-69
2023/10/06 11:45:23;;;;;;;;;;;17.60;99.90;;;;;;5036132;28;20045;-69
2023/10/06 11:47:51;;;;;;;13.82;10.38;;;17.70;99.90;;;;;;5038143;28;19956;-67
2023/10/06 11:50:32;;;;;;;15.57;9.73;;;17.70;99.90;;;;;;5033023;28;20047;-70
2023/10/06 11:53:05;;;;;;;13.05;9.77;;;17.80;99.90;;;;;;5036641;28;20041;-68
2023/10/06 11:55:37;;;;;;;;;;;17.90;99.90;;;;;;5033488;28;20099;-66
2023/10/06 11:58:08;;;;;;;11.75;9.10;;;18.00;99.90;;;;;;5037455;28;20706;-69
2023/10/06 12:00:43;;;;;;;12.95;9.55;;;18.10;99.90;;;;;;5033199;28;20044;-69
2023/10/06 12:03:32;;;;;;;15.95;9.32;;;18.20;99.90;;;;;;5039625;28;20069;-69
2023/10/06 12:06:07;;;;;;;12.30;8.80;;;18.20;99.90;;;;;;5034479;28;20118;-67
2023/10/06 12:08:45;;;;;;;13.00;8.52;;;18.30;99.90;;;;;;5037214;28;20053;-67
2023/10/06 12:11:19;;;;;;;14.80;10.82;;;18.40;99.90;;;;;;5039292;28;20043;-69
2023/10/06 12:13:51;;;;;;;10.63;7.97;;;18.50;99.90;;;;;;5035335;28;20044;-67
2023/10/06 12:16:24;;;;;;;11.05;8.63;;;18.50;99.90;;;;;;5040506;28;20505;-68
2023/10/06 12:18:56;;;;;;;11.98;8.77;;;18.50;99.90;;;;;;5034149;28;20037;-68
2023/10/06 12:21:27;;;;;;;12.02;8.30;;;18.60;99.90;;;;;;5036204;28;20045;-68
2023/10/06 12:23:59;;;;;;;11.68;8.25;;;18.60;99.90;;;;;;5039989;28;20044;-67
2023/10/06 12:26:32;;;;;;;13.73;8.85;;;18.70;99.90;;;;;;5032466;28;20045;-69
2023/10/06 12:29:04;;;;;;;16.27;8.80;;;18.70;99.90;;;;;;5035268;28;20041;-69
2023/10/06 12:31:38;;;;;;;13.63;8.50;;;18.80;99.90;;;;;;5024089;28;20053;-67
2023/10/06 12:34:15;;;;;;;11.88;8.77;;;18.70;99.90;;;;;;5031207;28;20049;-69
2023/10/06 12:36:48;;;;;;;12.23;8.75;;;18.70;99.90;;;;;;5032499;28;20542;-67
2023/10/06 12:39:33;;;;;;;13.32;7.93;;;18.70;99.90;;;;;;5027064;28;20044;-68
2023/10/06 12:42:05;;;;;;;15.13;8.75;;;18.60;99.90;;;;;;5038372;28;20041;-67
2023/10/06 12:44:42;;;;;;;14.60;8.50;;;18.60;99.90;;;;;;5034748;28;20044;-68
2023/10/06 12:47:14;;;;;;;13.25;8.73;;;18.60;99.90;;;;;;5032548;28;20498;-69
2023/10/06 12:49:47;;;;;;;13.07;9.27;;;18.70;99.90;;;;;;5033135;28;20049;-68
2023/10/06 12:52:19;;;;;;;12.02;8.45;;;18.80;99.90;;;;;;5035909;28;20051;-69
2023/10/06 12:54:47;;;;;;;12.38;7.68;;;18.90;99.90;;;;;;5032656;28;20489;-68
2023/10/06 12:57:19;;;;;;;10.40;6.78;;;19.00;99.90;;;;;;5033993;28;20120;-69
2023/10/06 12:59:48;;;;;;;11.32;7.72;;;19.00;99.90;;;;;;5028443;28;20069;-68
2023/10/06 13:02:24;;;;;;;13.10;8.60;;;19.10;99.90;;;;;;5031627;28;20061;-67
2023/10/06 13:04:57;;;;;;;14.25;8.52;;;19.10;99.90;;;;;;5026944;28;20040;-67
2023/10/06 13:07:31;;;;;;;12.20;7.88;;;19.20;99.90;;;;;;5033180;28;20144;-67
2023/10/06 13:10:08;;;;;;;8.52;6.90;;;19.20;99.90;;;;;;5039120;28;20050;-68
2023/10/06 13:12:40;;;;;;;11.00;6.95;;;19.30;99.90;;;;;;5032601;28;20047;-69
2023/10/06 13:15:14;;;;;;;12.60;8.13;;;19.40;99.90;;;;;;5040229;28;20037;-69
2023/10/06 13:17:48;;;;;;;9.48;6.30;;;19.30;99.90;;;;;;5033119;28;20425;-68
2023/10/06 13:20:19;;;;;;;10.38;6.85;;;19.30;99.90;;;;;;5036593;28;20040;-69
2023/10/06 13:22:52;;;;;;;9.60;6.68;;;19.30;99.90;;;;;;5034861;28;20034;-66
2023/10/06 13:25:18;;;;;;;10.82;6.03;;;19.40;99.90;;;;;;5031028;28;20099;-69
2023/10/06 13:27:50;;;;;;;12.18;6.28;;;19.40;99.90;;;;;;5030624;28;20034;-67
2023/10/06 13:30:22;;;;;;;11.48;6.65;;;19.40;99.90;;;;;;5038606;28;21067;-69
2023/10/06 13:32:57;;;;;;;12.52;6.75;;;19.50;99.90;;;;;;5038320;28;20049;-67